sensor_id;sensor_type;location;lat;lon;timestamp;temperature;humidity
76172;DHT22;64929;51.178;4.138;2023-03-01T00:00:14;2.80;61.80
76172;DHT22;64929;51.178;4.138;2023-03-01T00:02:40;2.90;61.60
76172;DHT22;64929;51.178;4.138;2023-03-01T00:05:06;2.90;61.50
76172;DHT22;64929;51.178;4.138;2023-03-01T00:07:33;2.90;61.80
76172;DHT22;64929;51.178;4.138;2023-03-01T00:09:58;2.90;61.90
76172;DHT22;64929;51.178;4.138;2023-03-01T00:12:24;2.90;61.70
76172;DHT22;64929;51.178;4.138;2023-03-01T00:14:50;2.80;62.40
76172;DHT22;64929;51.178;4.138;2023-03-01T00:17:15;2.80;62.70
76172;DHT22;64929;51.178;4.138;2023-03-01T00:19:41;2.90;62.10
76172;DHT22;64929;51.178;4.138;2023-03-01T00:22:07;2.90;62.20
76172;DHT22;64929;51.178;4.138;2023-03-01T00:24:32;3.00;62.10
76172;DHT22;64929;51.178;4.138;2023-03-01T00:26:58;3.00;62.00
76172;DHT22;64929;51.178;4.138;2023-03-01T00:29:24;2.90;62.20
76172;DHT22;64929;51.178;4.138;2023-03-01T00:31:50;2.70;63.50
76172;DHT22;64929;51.178;4.138;2023-03-01T00:34:16;2.60;64.20
76172;DHT22;64929;51.178;4.138;2023-03-01T00:36:41;2.50;65.00
76172;DHT22;64929;51.178;4.138;2023-03-01T00:39:11;2.50;64.20
76172;DHT22;64929;51.178;4.138;2023-03-01T00:41:38;2.50;65.10
76172;DHT22;64929;51.178;4.138;2023-03-01T00:44:05;2.50;64.80
76172;DHT22;64929;51.178;4.138;2023-03-01T00:46:31;2.50;65.20
76172;DHT22;64929;51.178;4.138;2023-03-01T00:48:57;2.50;65.20
76172;DHT22;64929;51.178;4.138;2023-03-01T00:51:25;2.50;65.00
76172;DHT22;64929;51.178;4.138;2023-03-01T00:53:56;2.60;65.20
76172;DHT22;64929;51.178;4.138;2023-03-01T00:56:22;2.60;65.00
76172;DHT22;64929;51.178;4.138;2023-03-01T00:58:48;2.60;65.10
76172;DHT22;64929;51.178;4.138;2023-03-01T01:01:20;2.60;65.40
76172;DHT22;64929;51.178;4.138;2023-03-01T01:03:48;2.50;65.60
76172;DHT22;64929;51.178;4.138;2023-03-01T01:06:16;2.50;66.00
76172;DHT22;64929;51.178;4.138;2023-03-01T01:08:42;2.40;66.50
76172;DHT22;64929;51.178;4.138;2023-03-01T01:11:11;2.40;66.60
76172;DHT22;64929;51.178;4.138;2023-03-01T01:13:38;2.40;66.40
76172;DHT22;64929;51.178;4.138;2023-03-01T01:16:04;2.50;66.10
76172;DHT22;64929;51.178;4.138;2023-03-01T01:18:29;2.60;66.20
76172;DHT22;64929;51.178;4.138;2023-03-01T01:20:55;2.60;66.20
76172;DHT22;64929;51.178;4.138;2023-03-01T01:23:21;2.50;66.20
76172;DHT22;64929;51.178;4.138;2023-03-01T01:25:46;2.40;66.80
76172;DHT22;64929;51.178;4.138;2023-03-01T01:28:12;2.40;66.90
76172;DHT22;64929;51.178;4.138;2023-03-01T01:30:38;2.50;66.50
76172;DHT22;64929;51.178;4.138;2023-03-01T01:33:03;2.50;66.10
76172;DHT22;64929;51.178;4.138;2023-03-01T01:35:29;2.50;66.50
76172;DHT22;64929;51.178;4.138;2023-03-01T01:37:54;2.40;66.60
76172;DHT22;64929;51.178;4.138;2023-03-01T01:40:20;2.30;67.50
76172;DHT22;64929;51.178;4.138;2023-03-01T01:42:46;2.20;67.50
76172;DHT22;64929;51.178;4.138;2023-03-01T01:45:34;2.30;67.10
76172;DHT22;64929;51.178;4.138;2023-03-01T01:48:14;2.30;67.10
76172;DHT22;64929;51.178;4.138;2023-03-01T01:50:41;2.20;67.80
76172;DHT22;64929;51.178;4.138;2023-03-01T01:53:14;2.10;67.30
76172;DHT22;64929;51.178;4.138;2023-03-01T01:55:44;2.10;67.90
76172;DHT22;64929;51.178;4.138;2023-03-01T01:58:13;2.20;67.40
76172;DHT22;64929;51.178;4.138;2023-03-01T02:00:39;2.30;67.30
76172;DHT22;64929;51.178;4.138;2023-03-01T02:03:12;2.10;67.70
76172;DHT22;64929;51.178;4.138;2023-03-01T02:05:41;1.90;68.80
76172;DHT22;64929;51.178;4.138;2023-03-01T02:08:08;1.70;69.60
76172;DHT22;64929;51.178;4.138;2023-03-01T02:10:35;1.70;69.60
76172;DHT22;64929;51.178;4.138;2023-03-01T02:13:03;1.70;69.60
76172;DHT22;64929;51.178;4.138;2023-03-01T02:15:34;1.60;70.00
76172;DHT22;64929;51.178;4.138;2023-03-01T02:18:02;1.70;70.20
76172;DHT22;64929;51.178;4.138;2023-03-01T02:20:47;1.80;69.90
76172;DHT22;64929;51.178;4.138;2023-03-01T02:23:14;1.90;69.50
76172;DHT22;64929;51.178;4.138;2023-03-01T02:28:34;2.00;69.40
76172;DHT22;64929;51.178;4.138;2023-03-01T02:31:02;2.00;69.40
76172;DHT22;64929;51.178;4.138;2023-03-01T02:33:47;2.00;69.50
76172;DHT22;64929;51.178;4.138;2023-03-01T02:36:25;2.10;69.00
76172;DHT22;64929;51.178;4.138;2023-03-01T02:38:55;2.00;69.10
76172;DHT22;64929;51.178;4.138;2023-03-01T02:41:22;1.90;69.40
76172;DHT22;64929;51.178;4.138;2023-03-01T02:43:49;2.00;69.30
76172;DHT22;64929;51.178;4.138;2023-03-01T02:46:20;1.90;69.20
76172;DHT22;64929;51.178;4.138;2023-03-01T02:48:56;1.80;69.80
76172;DHT22;64929;51.178;4.138;2023-03-01T02:54:31;2.00;69.40
76172;DHT22;64929;51.178;4.138;2023-03-01T02:56:59;1.90;69.40
76172;DHT22;64929;51.178;4.138;2023-03-01T02:59:28;1.80;69.70
76172;DHT22;64929;51.178;4.138;2023-03-01T03:01:55;1.50;70.90
76172;DHT22;64929;51.178;4.138;2023-03-01T03:04:21;1.50;71.20
76172;DHT22;64929;51.178;4.138;2023-03-01T03:06:48;1.60;71.20
76172;DHT22;64929;51.178;4.138;2023-03-01T03:09:15;1.60;71.30
76172;DHT22;64929;51.178;4.138;2023-03-01T03:11:41;1.60;71.90
76172;DHT22;64929;51.178;4.138;2023-03-01T03:14:12;1.60;72.20
76172;DHT22;64929;51.178;4.138;2023-03-01T03:16:49;1.60;72.80
76172;DHT22;64929;51.178;4.138;2023-03-01T03:19:16;1.60;73.10
76172;DHT22;64929;51.178;4.138;2023-03-01T03:21:42;1.50;73.60
76172;DHT22;64929;51.178;4.138;2023-03-01T03:24:09;1.50;74.00
76172;DHT22;64929;51.178;4.138;2023-03-01T03:26:34;1.50;74.00
76172;DHT22;64929;51.178;4.138;2023-03-01T03:29:00;1.60;73.70
76172;DHT22;64929;51.178;4.138;2023-03-01T03:31:26;1.60;73.70
76172;DHT22;64929;51.178;4.138;2023-03-01T03:33:52;1.50;73.80
76172;DHT22;64929;51.178;4.138;2023-03-01T03:36:19;1.60;74.00
76172;DHT22;64929;51.178;4.138;2023-03-01T03:38:45;1.60;74.00
76172;DHT22;64929;51.178;4.138;2023-03-01T03:41:12;1.60;74.00
76172;DHT22;64929;51.178;4.138;2023-03-01T03:43:40;1.60;74.10
76172;DHT22;64929;51.178;4.138;2023-03-01T03:46:08;1.50;74.20
76172;DHT22;64929;51.178;4.138;2023-03-01T03:48:35;1.50;74.30
76172;DHT22;64929;51.178;4.138;2023-03-01T03:51:01;1.60;74.50
76172;DHT22;64929;51.178;4.138;2023-03-01T03:53:29;1.70;73.50
76172;DHT22;64929;51.178;4.138;2023-03-01T03:55:55;1.70;73.40
76172;DHT22;64929;51.178;4.138;2023-03-01T03:58:22;1.70;73.20
76172;DHT22;64929;51.178;4.138;2023-03-01T04:00:51;1.70;73.30
76172;DHT22;64929;51.178;4.138;2023-03-01T04:03:18;1.70;73.20
76172;DHT22;64929;51.178;4.138;2023-03-01T04:05:46;1.70;72.90
76172;DHT22;64929;51.178;4.138;2023-03-01T04:08:12;1.70;72.50
76172;DHT22;64929;51.178;4.138;2023-03-01T04:10:40;1.60;72.80
76172;DHT22;64929;51.178;4.138;2023-03-01T04:13:08;1.40;73.40
76172;DHT22;64929;51.178;4.138;2023-03-01T04:15:34;1.40;73.50
76172;DHT22;64929;51.178;4.138;2023-03-01T04:18:01;1.40;73.50
76172;DHT22;64929;51.178;4.138;2023-03-01T04:20:29;1.40;73.70
76172;DHT22;64929;51.178;4.138;2023-03-01T04:22:59;1.50;73.30
76172;DHT22;64929;51.178;4.138;2023-03-01T04:25:25;1.50;73.10
76172;DHT22;64929;51.178;4.138;2023-03-01T04:27:51;1.50;73.20
76172;DHT22;64929;51.178;4.138;2023-03-01T04:30:17;1.50;73.10
76172;DHT22;64929;51.178;4.138;2023-03-01T04:32:42;1.40;73.00
76172;DHT22;64929;51.178;4.138;2023-03-01T04:35:09;1.40;73.30
76172;DHT22;64929;51.178;4.138;2023-03-01T04:37:35;1.40;73.20
76172;DHT22;64929;51.178;4.138;2023-03-01T04:40:01;1.40;73.30
76172;DHT22;64929;51.178;4.138;2023-03-01T04:42:37;1.50;73.50
76172;DHT22;64929;51.178;4.138;2023-03-01T04:45:03;1.50;72.60
76172;DHT22;64929;51.178;4.138;2023-03-01T04:47:41;1.50;72.50
76172;DHT22;64929;51.178;4.138;2023-03-01T04:50:13;1.40;72.80
76172;DHT22;64929;51.178;4.138;2023-03-01T04:52:39;1.40;72.80
76172;DHT22;64929;51.178;4.138;2023-03-01T04:55:06;1.30;73.00
76172;DHT22;64929;51.178;4.138;2023-03-01T04:57:32;1.30;72.80
76172;DHT22;64929;51.178;4.138;2023-03-01T04:59:57;1.30;73.00
76172;DHT22;64929;51.178;4.138;2023-03-01T05:02:23;1.40;72.30
76172;DHT22;64929;51.178;4.138;2023-03-01T05:04:49;1.20;72.80
76172;DHT22;64929;51.178;4.138;2023-03-01T05:07:15;1.20;73.10
76172;DHT22;64929;51.178;4.138;2023-03-01T05:09:46;1.10;73.20
76172;DHT22;64929;51.178;4.138;2023-03-01T05:12:12;1.10;73.30
76172;DHT22;64929;51.178;4.138;2023-03-01T05:14:39;1.10;72.80
76172;DHT22;64929;51.178;4.138;2023-03-01T05:17:05;1.10;73.10
76172;DHT22;64929;51.178;4.138;2023-03-01T05:19:31;1.00;72.80
76172;DHT22;64929;51.178;4.138;2023-03-01T05:21:58;1.00;73.30
76172;DHT22;64929;51.178;4.138;2023-03-01T05:24:28;1.00;74.00
76172;DHT22;64929;51.178;4.138;2023-03-01T05:26:54;1.00;73.30
76172;DHT22;64929;51.178;4.138;2023-03-01T05:29:21;0.90;74.10
76172;DHT22;64929;51.178;4.138;2023-03-01T05:31:51;0.70;74.20
76172;DHT22;64929;51.178;4.138;2023-03-01T05:34:17;0.60;74.80
76172;DHT22;64929;51.178;4.138;2023-03-01T05:36:43;0.50;75.10
76172;DHT22;64929;51.178;4.138;2023-03-01T05:39:08;0.40;75.10
76172;DHT22;64929;51.178;4.138;2023-03-01T05:41:34;0.50;75.00
76172;DHT22;64929;51.178;4.138;2023-03-01T05:43:59;0.40;75.10
76172;DHT22;64929;51.178;4.138;2023-03-01T05:46:25;0.30;75.20
76172;DHT22;64929;51.178;4.138;2023-03-01T05:48:51;0.40;75.50
76172;DHT22;64929;51.178;4.138;2023-03-01T05:51:16;0.30;75.30
76172;DHT22;64929;51.178;4.138;2023-03-01T05:53:42;0.30;75.10
76172;DHT22;64929;51.178;4.138;2023-03-01T05:56:08;0.40;74.90
76172;DHT22;64929;51.178;4.138;2023-03-01T05:58:34;0.50;74.40
76172;DHT22;64929;51.178;4.138;2023-03-01T06:00:59;0.60;74.40
76172;DHT22;64929;51.178;4.138;2023-03-01T06:03:25;0.60;74.10
76172;DHT22;64929;51.178;4.138;2023-03-01T06:05:57;0.60;73.90
76172;DHT22;64929;51.178;4.138;2023-03-01T06:08:23;0.60;73.80
76172;DHT22;64929;51.178;4.138;2023-03-01T06:10:49;0.50;74.80
76172;DHT22;64929;51.178;4.138;2023-03-01T06:13:15;0.70;73.70
76172;DHT22;64929;51.178;4.138;2023-03-01T06:15:40;0.50;74.10
76172;DHT22;64929;51.178;4.138;2023-03-01T06:18:06;0.50;74.20
76172;DHT22;64929;51.178;4.138;2023-03-01T06:20:32;0.40;74.00
76172;DHT22;64929;51.178;4.138;2023-03-01T06:23:01;0.30;74.20
76172;DHT22;64929;51.178;4.138;2023-03-01T06:25:30;0.30;74.70
76172;DHT22;64929;51.178;4.138;2023-03-01T06:27:56;0.50;74.50
76172;DHT22;64929;51.178;4.138;2023-03-01T06:30:23;0.30;74.80
76172;DHT22;64929;51.178;4.138;2023-03-01T06:32:49;0.30;74.70
76172;DHT22;64929;51.178;4.138;2023-03-01T06:35:17;0.30;74.80
76172;DHT22;64929;51.178;4.138;2023-03-01T06:37:43;0.40;75.10
76172;DHT22;64929;51.178;4.138;2023-03-01T06:40:10;0.50;74.30
76172;DHT22;64929;51.178;4.138;2023-03-01T06:42:38;0.60;74.20
76172;DHT22;64929;51.178;4.138;2023-03-01T06:45:06;0.60;73.80
76172;DHT22;64929;51.178;4.138;2023-03-01T06:47:32;0.50;74.10
76172;DHT22;64929;51.178;4.138;2023-03-01T06:50:02;0.60;73.70
76172;DHT22;64929;51.178;4.138;2023-03-01T06:52:28;0.70;73.10
76172;DHT22;64929;51.178;4.138;2023-03-01T06:54:53;0.60;73.10
76172;DHT22;64929;51.178;4.138;2023-03-01T06:57:19;0.60;73.40
76172;DHT22;64929;51.178;4.138;2023-03-01T06:59:46;0.70;73.00
76172;DHT22;64929;51.178;4.138;2023-03-01T07:02:13;0.90;72.80
76172;DHT22;64929;51.178;4.138;2023-03-01T07:04:39;0.80;72.90
76172;DHT22;64929;51.178;4.138;2023-03-01T07:07:05;0.90;73.00
76172;DHT22;64929;51.178;4.138;2023-03-01T07:09:31;0.90;72.80
76172;DHT22;64929;51.178;4.138;2023-03-01T07:11:57;0.80;73.20
76172;DHT22;64929;51.178;4.138;2023-03-01T07:14:23;0.80;73.60
76172;DHT22;64929;51.178;4.138;2023-03-01T07:16:53;0.90;73.20
76172;DHT22;64929;51.178;4.138;2023-03-01T07:19:19;0.90;73.60
76172;DHT22;64929;51.178;4.138;2023-03-01T07:21:44;1.00;73.40
76172;DHT22;64929;51.178;4.138;2023-03-01T07:24:10;1.10;73.00
76172;DHT22;64929;51.178;4.138;2023-03-01T07:26:36;1.20;72.90
76172;DHT22;64929;51.178;4.138;2023-03-01T07:29:07;1.30;72.60
76172;DHT22;64929;51.178;4.138;2023-03-01T07:31:33;1.40;72.10
76172;DHT22;64929;51.178;4.138;2023-03-01T07:33:59;1.50;71.70
76172;DHT22;64929;51.178;4.138;2023-03-01T07:36:24;1.60;71.60
76172;DHT22;64929;51.178;4.138;2023-03-01T07:38:50;1.70;70.90
76172;DHT22;64929;51.178;4.138;2023-03-01T07:41:16;1.80;70.30
76172;DHT22;64929;51.178;4.138;2023-03-01T07:43:42;2.00;69.70
76172;DHT22;64929;51.178;4.138;2023-03-01T07:46:08;2.00;69.30
76172;DHT22;64929;51.178;4.138;2023-03-01T07:48:34;2.10;69.00
76172;DHT22;64929;51.178;4.138;2023-03-01T07:51:00;2.20;68.90
76172;DHT22;64929;51.178;4.138;2023-03-01T07:53:27;2.40;68.40
76172;DHT22;64929;51.178;4.138;2023-03-01T07:56:10;2.40;67.90
76172;DHT22;64929;51.178;4.138;2023-03-01T07:58:41;2.50;68.10
76172;DHT22;64929;51.178;4.138;2023-03-01T08:01:10;2.50;67.60
76172;DHT22;64929;51.178;4.138;2023-03-01T08:03:37;2.70;67.30
76172;DHT22;64929;51.178;4.138;2023-03-01T08:06:04;2.70;67.10
76172;DHT22;64929;51.178;4.138;2023-03-01T08:08:31;2.80;67.20
76172;DHT22;64929;51.178;4.138;2023-03-01T08:10:58;2.70;67.20
76172;DHT22;64929;51.178;4.138;2023-03-01T08:13:24;2.80;67.00
76172;DHT22;64929;51.178;4.138;2023-03-01T08:15:51;2.90;66.90
76172;DHT22;64929;51.178;4.138;2023-03-01T08:18:18;3.00;66.70
76172;DHT22;64929;51.178;4.138;2023-03-01T08:20:44;3.10;66.40
76172;DHT22;64929;51.178;4.138;2023-03-01T08:23:10;3.20;66.40
76172;DHT22;64929;51.178;4.138;2023-03-01T08:25:36;3.20;66.10
76172;DHT22;64929;51.178;4.138;2023-03-01T08:28:01;3.30;66.20
76172;DHT22;64929;51.178;4.138;2023-03-01T08:30:27;3.50;65.30
76172;DHT22;64929;51.178;4.138;2023-03-01T08:32:53;3.50;65.20
76172;DHT22;64929;51.178;4.138;2023-03-01T08:35:19;3.60;65.10
76172;DHT22;64929;51.178;4.138;2023-03-01T08:37:45;3.60;64.30
76172;DHT22;64929;51.178;4.138;2023-03-01T08:40:12;3.60;64.10
76172;DHT22;64929;51.178;4.138;2023-03-01T08:42:39;3.70;63.60
76172;DHT22;64929;51.178;4.138;2023-03-01T08:45:06;3.80;63.30
76172;DHT22;64929;51.178;4.138;2023-03-01T08:47:32;3.80;63.30
76172;DHT22;64929;51.178;4.138;2023-03-01T08:49:59;3.80;62.70
76172;DHT22;64929;51.178;4.138;2023-03-01T08:52:25;3.60;61.60
76172;DHT22;64929;51.178;4.138;2023-03-01T08:54:51;3.50;61.20
76172;DHT22;64929;51.178;4.138;2023-03-01T08:57:17;3.70;60.30
76172;DHT22;64929;51.178;4.138;2023-03-01T08:59:43;3.70;59.10
76172;DHT22;64929;51.178;4.138;2023-03-01T09:02:13;3.70;59.90
76172;DHT22;64929;51.178;4.138;2023-03-01T09:04:40;3.60;59.50
76172;DHT22;64929;51.178;4.138;2023-03-01T09:07:06;3.70;60.10
76172;DHT22;64929;51.178;4.138;2023-03-01T09:09:32;3.70;59.40
76172;DHT22;64929;51.178;4.138;2023-03-01T09:11:57;3.60;60.10
76172;DHT22;64929;51.178;4.138;2023-03-01T09:14:23;3.70;59.40
76172;DHT22;64929;51.178;4.138;2023-03-01T09:16:49;3.70;59.30
76172;DHT22;64929;51.178;4.138;2023-03-01T09:19:16;3.90;59.60
76172;DHT22;64929;51.178;4.138;2023-03-01T09:21:42;4.00;59.20
76172;DHT22;64929;51.178;4.138;2023-03-01T09:24:19;4.20;58.70
76172;DHT22;64929;51.178;4.138;2023-03-01T09:26:45;4.40;58.20
76172;DHT22;64929;51.178;4.138;2023-03-01T09:29:11;4.50;57.40
76172;DHT22;64929;51.178;4.138;2023-03-01T09:31:38;4.60;56.00
76172;DHT22;64929;51.178;4.138;2023-03-01T09:34:04;4.50;55.20
76172;DHT22;64929;51.178;4.138;2023-03-01T09:36:29;4.40;55.10
76172;DHT22;64929;51.178;4.138;2023-03-01T09:38:55;4.40;54.70
76172;DHT22;64929;51.178;4.138;2023-03-01T09:41:47;4.40;55.70
76172;DHT22;64929;51.178;4.138;2023-03-01T09:47:32;4.40;54.30
76172;DHT22;64929;51.178;4.138;2023-03-01T09:50:09;4.50;54.90
76172;DHT22;64929;51.178;4.138;2023-03-01T09:53:01;4.70;54.40
76172;DHT22;64929;51.178;4.138;2023-03-01T09:55:37;4.90;55.10
76172;DHT22;64929;51.178;4.138;2023-03-01T09:58:28;5.00;54.50
76172;DHT22;64929;51.178;4.138;2023-03-01T10:00:56;5.20;53.60
76172;DHT22;64929;51.178;4.138;2023-03-01T10:03:44;5.30;53.20
76172;DHT22;64929;51.178;4.138;2023-03-01T10:06:15;5.30;52.40
76172;DHT22;64929;51.178;4.138;2023-03-01T10:08:57;5.40;51.10
76172;DHT22;64929;51.178;4.138;2023-03-01T10:11:26;5.40;51.40
76172;DHT22;64929;51.178;4.138;2023-03-01T10:16:54;5.50;52.40
76172;DHT22;64929;51.178;4.138;2023-03-01T10:19:34;5.60;51.60
76172;DHT22;64929;51.178;4.138;2023-03-01T10:24:42;5.50;51.50
76172;DHT22;64929;51.178;4.138;2023-03-01T10:27:15;5.60;51.90
76172;DHT22;64929;51.178;4.138;2023-03-01T10:32:37;5.80;51.70
76172;DHT22;64929;51.178;4.138;2023-03-01T10:35:22;6.00;50.00
76172;DHT22;64929;51.178;4.138;2023-03-01T10:38:05;6.10;49.40
76172;DHT22;64929;51.178;4.138;2023-03-01T10:40:33;6.10;49.70
76172;DHT22;64929;51.178;4.138;2023-03-01T10:43:02;5.90;49.10
76172;DHT22;64929;51.178;4.138;2023-03-01T10:45:37;5.90;49.90
76172;DHT22;64929;51.178;4.138;2023-03-01T10:48:24;6.00;50.30
76172;DHT22;64929;51.178;4.138;2023-03-01T10:51:06;6.10;49.20
76172;DHT22;64929;51.178;4.138;2023-03-01T10:53:41;6.00;49.70
76172;DHT22;64929;51.178;4.138;2023-03-01T10:58:37;6.40;48.70
76172;DHT22;64929;51.178;4.138;2023-03-01T11:03:40;6.80;48.20
76172;DHT22;64929;51.178;4.138;2023-03-01T11:06:21;6.80;48.00
76172;DHT22;64929;51.178;4.138;2023-03-01T11:08:49;6.70;47.80
76172;DHT22;64929;51.178;4.138;2023-03-01T11:11:22;6.40;47.00
76172;DHT22;64929;51.178;4.138;2023-03-01T11:16:43;6.70;47.90
76172;DHT22;64929;51.178;4.138;2023-03-01T11:22:22;6.90;46.90
76172;DHT22;64929;51.178;4.138;2023-03-01T11:26:55;6.90;46.50
76172;DHT22;64929;51.178;4.138;2023-03-01T11:31:55;7.20;47.20
76172;DHT22;64929;51.178;4.138;2023-03-01T11:34:38;7.20;47.00
76172;DHT22;64929;51.178;4.138;2023-03-01T11:40:23;7.50;46.30
76172;DHT22;64929;51.178;4.138;2023-03-01T11:54:47;8.40;45.50
76172;DHT22;64929;51.178;4.138;2023-03-01T12:01:02;9.00;44.30
76172;DHT22;64929;51.178;4.138;2023-03-01T12:11:28;8.80;42.70
76172;DHT22;64929;51.178;4.138;2023-03-01T12:28:31;9.60;40.90
76172;DHT22;64929;51.178;4.138;2023-03-01T12:31:08;9.50;41.10
76172;DHT22;64929;51.178;4.138;2023-03-01T12:33:56;9.80;40.40
76172;DHT22;64929;51.178;4.138;2023-03-01T12:39:18;9.90;40.40
76172;DHT22;64929;51.178;4.138;2023-03-01T12:44:52;10.10;40.20
76172;DHT22;64929;51.178;4.138;2023-03-01T12:50:02;10.90;38.60
76172;DHT22;64929;51.178;4.138;2023-03-01T12:52:44;11.70;36.90
76172;DHT22;64929;51.178;4.138;2023-03-01T12:55:40;11.90;37.00
76172;DHT22;64929;51.178;4.138;2023-03-01T13:01:14;11.50;36.40
76172;DHT22;64929;51.178;4.138;2023-03-01T13:06:40;10.90;38.40
76172;DHT22;64929;51.178;4.138;2023-03-01T13:09:11;10.50;38.10
76172;DHT22;64929;51.178;4.138;2023-03-01T13:11:41;10.00;39.70
76172;DHT22;64929;51.178;4.138;2023-03-01T13:16:47;9.40;40.70
76172;DHT22;64929;51.178;4.138;2023-03-01T13:19:22;9.20;42.00
76172;DHT22;64929;51.178;4.138;2023-03-01T13:21:49;9.40;40.70
76172;DHT22;64929;51.178;4.138;2023-03-01T13:24:41;9.20;40.90
76172;DHT22;64929;51.178;4.138;2023-03-01T13:29:45;8.90;41.10
76172;DHT22;64929;51.178;4.138;2023-03-01T13:32:31;8.70;41.60
76172;DHT22;64929;51.178;4.138;2023-03-01T13:35:02;8.50;42.20
76172;DHT22;64929;51.178;4.138;2023-03-01T13:37:34;8.70;42.20
76172;DHT22;64929;51.178;4.138;2023-03-01T13:42:53;8.60;42.30
76172;DHT22;64929;51.178;4.138;2023-03-01T13:47:57;8.70;41.00
76172;DHT22;64929;51.178;4.138;2023-03-01T13:50:33;8.60;42.10
76172;DHT22;64929;51.178;4.138;2023-03-01T13:53:05;8.70;42.10
76172;DHT22;64929;51.178;4.138;2023-03-01T13:58:04;8.70;41.80
76172;DHT22;64929;51.178;4.138;2023-03-01T14:05:38;8.80;42.50
76172;DHT22;64929;51.178;4.138;2023-03-01T14:08:17;8.90;42.10
76172;DHT22;64929;51.178;4.138;2023-03-01T14:19:16;8.70;41.80
76172;DHT22;64929;51.178;4.138;2023-03-01T14:21:44;8.70;43.10
76172;DHT22;64929;51.178;4.138;2023-03-01T14:24:22;8.80;42.90
76172;DHT22;64929;51.178;4.138;2023-03-01T14:26:49;8.70;42.80
76172;DHT22;64929;51.178;4.138;2023-03-01T14:29:27;8.70;43.20
76172;DHT22;64929;51.178;4.138;2023-03-01T14:31:53;8.80;42.70
76172;DHT22;64929;51.178;4.138;2023-03-01T14:34:21;8.80;42.80
76172;DHT22;64929;51.178;4.138;2023-03-01T14:36:47;8.80;42.70
76172;DHT22;64929;51.178;4.138;2023-03-01T14:39:24;8.80;43.20
76172;DHT22;64929;51.178;4.138;2023-03-01T14:41:51;8.90;43.30
76172;DHT22;64929;51.178;4.138;2023-03-01T14:44:22;9.00;42.90
76172;DHT22;64929;51.178;4.138;2023-03-01T14:46:55;9.00;43.00
76172;DHT22;64929;51.178;4.138;2023-03-01T14:49:25;8.90;43.60
76172;DHT22;64929;51.178;4.138;2023-03-01T14:52:37;8.90;43.30
76172;DHT22;64929;51.178;4.138;2023-03-01T14:54:46;9.00;42.90
76172;DHT22;64929;51.178;4.138;2023-03-01T14:57:20;9.00;43.00
76172;DHT22;64929;51.178;4.138;2023-03-01T14:59:52;9.30;42.00
76172;DHT22;64929;51.178;4.138;2023-03-01T15:02:22;9.90;40.70
76172;DHT22;64929;51.178;4.138;2023-03-01T15:04:56;10.20;40.30
76172;DHT22;64929;51.178;4.138;2023-03-01T15:07:29;10.60;39.60
76172;DHT22;64929;51.178;4.138;2023-03-01T15:09:55;11.40;38.20
76172;DHT22;64929;51.178;4.138;2023-03-01T15:14:55;13.60;34.70
76172;DHT22;64929;51.178;4.138;2023-03-01T15:17:35;14.00;33.70
76172;DHT22;64929;51.178;4.138;2023-03-01T15:20:16;14.40;32.70
76172;DHT22;64929;51.178;4.138;2023-03-01T15:22:44;13.60;33.10
76172;DHT22;64929;51.178;4.138;2023-03-01T15:25:22;12.90;34.40
76172;DHT22;64929;51.178;4.138;2023-03-01T15:27:50;12.80;35.30
76172;DHT22;64929;51.178;4.138;2023-03-01T15:30:37;12.50;35.00
76172;DHT22;64929;51.178;4.138;2023-03-01T15:35:54;12.30;35.90
76172;DHT22;64929;51.178;4.138;2023-03-01T15:38:50;12.40;36.20
76172;DHT22;64929;51.178;4.138;2023-03-01T15:41:31;12.40;35.90
76172;DHT22;64929;51.178;4.138;2023-03-01T15:43:59;12.50;34.90
76172;DHT22;64929;51.178;4.138;2023-03-01T15:46:33;12.30;35.70
76172;DHT22;64929;51.178;4.138;2023-03-01T15:49:05;11.90;36.70
76172;DHT22;64929;51.178;4.138;2023-03-01T15:51:36;11.40;37.00
76172;DHT22;64929;51.178;4.138;2023-03-01T15:54:17;10.70;39.20
76172;DHT22;64929;51.178;4.138;2023-03-01T15:56:44;10.20;39.30
76172;DHT22;64929;51.178;4.138;2023-03-01T15:59:12;10.00;40.40
76172;DHT22;64929;51.178;4.138;2023-03-01T16:01:40;9.90;40.40
76172;DHT22;64929;51.178;4.138;2023-03-01T16:04:05;9.80;40.70
76172;DHT22;64929;51.178;4.138;2023-03-01T16:06:31;9.80;40.80
76172;DHT22;64929;51.178;4.138;2023-03-01T16:08:57;9.70;40.20
76172;DHT22;64929;51.178;4.138;2023-03-01T16:11:23;9.60;40.50
76172;DHT22;64929;51.178;4.138;2023-03-01T16:13:49;9.80;40.20
76172;DHT22;64929;51.178;4.138;2023-03-01T16:16:15;9.80;40.60
76172;DHT22;64929;51.178;4.138;2023-03-01T16:18:46;9.70;40.30
76172;DHT22;64929;51.178;4.138;2023-03-01T16:21:14;9.60;40.30
76172;DHT22;64929;51.178;4.138;2023-03-01T16:23:42;9.50;41.30
76172;DHT22;64929;51.178;4.138;2023-03-01T16:26:08;9.30;41.80
76172;DHT22;64929;51.178;4.138;2023-03-01T16:28:33;9.30;41.90
76172;DHT22;64929;51.178;4.138;2023-03-01T16:30:59;9.10;42.80
76172;DHT22;64929;51.178;4.138;2023-03-01T16:33:26;9.10;42.90
76172;DHT22;64929;51.178;4.138;2023-03-01T16:35:52;9.20;43.40
76172;DHT22;64929;51.178;4.138;2023-03-01T16:38:18;9.10;43.00
76172;DHT22;64929;51.178;4.138;2023-03-01T16:40:48;8.90;43.20
76172;DHT22;64929;51.178;4.138;2023-03-01T16:43:14;8.90;43.60
76172;DHT22;64929;51.178;4.138;2023-03-01T16:45:39;8.80;43.80
76172;DHT22;64929;51.178;4.138;2023-03-01T16:48:06;8.70;44.50
76172;DHT22;64929;51.178;4.138;2023-03-01T16:50:32;8.50;45.10
76172;DHT22;64929;51.178;4.138;2023-03-01T16:52:58;8.40;45.30
76172;DHT22;64929;51.178;4.138;2023-03-01T16:55:24;8.40;45.30
76172;DHT22;64929;51.178;4.138;2023-03-01T16:57:52;8.30;45.60
76172;DHT22;64929;51.178;4.138;2023-03-01T17:00:18;8.20;45.90
76172;DHT22;64929;51.178;4.138;2023-03-01T17:02:44;8.10;46.40
76172;DHT22;64929;51.178;4.138;2023-03-01T17:05:14;7.90;46.30
76172;DHT22;64929;51.178;4.138;2023-03-01T17:07:48;8.00;46.80
76172;DHT22;64929;51.178;4.138;2023-03-01T17:10:20;7.90;46.50
76172;DHT22;64929;51.178;4.138;2023-03-01T17:12:58;8.00;46.50
76172;DHT22;64929;51.178;4.138;2023-03-01T17:15:28;7.90;46.50
76172;DHT22;64929;51.178;4.138;2023-03-01T17:17:54;7.80;47.00
76172;DHT22;64929;51.178;4.138;2023-03-01T17:20:21;7.70;47.00
76172;DHT22;64929;51.178;4.138;2023-03-01T17:22:47;7.70;47.00
76172;DHT22;64929;51.178;4.138;2023-03-01T17:25:16;7.60;46.70
76172;DHT22;64929;51.178;4.138;2023-03-01T17:27:41;7.60;46.80
76172;DHT22;64929;51.178;4.138;2023-03-01T17:30:12;7.50;47.10
76172;DHT22;64929;51.178;4.138;2023-03-01T17:32:38;7.50;47.60
76172;DHT22;64929;51.178;4.138;2023-03-01T17:35:04;7.30;48.00
76172;DHT22;64929;51.178;4.138;2023-03-01T17:37:30;7.30;47.60
76172;DHT22;64929;51.178;4.138;2023-03-01T17:39:56;7.30;47.80
76172;DHT22;64929;51.178;4.138;2023-03-01T17:42:21;7.30;47.60
76172;DHT22;64929;51.178;4.138;2023-03-01T17:44:47;7.30;47.70
76172;DHT22;64929;51.178;4.138;2023-03-01T17:47:13;7.10;48.00
76172;DHT22;64929;51.178;4.138;2023-03-01T17:49:39;7.10;47.80
76172;DHT22;64929;51.178;4.138;2023-03-01T17:52:04;7.00;48.40
76172;DHT22;64929;51.178;4.138;2023-03-01T17:54:30;7.00;48.30
76172;DHT22;64929;51.178;4.138;2023-03-01T17:56:58;6.90;48.60